Pocono Summit, Pennsylvania
Current Conditions -  °F | °C
As of 8:53 PM on Saturday 20 Dec 2014 (Local Time) from KMPO Reporting Station
Overcast Overcast  
Wind Chill: 19°   Ceiling: 1500
Heat Index: 25°   Visibility: 10mi
Dew Point: 18°   Wind: 5mph
Humidity: 75%   Direction: 350°N
Pressure: 30.19"   Gusts: NA
Location:  41.11°N, 75.39°W
Report Text: KMPO 210153Z AUTO 35004KT 10SM OVC015 M04/M08 A3019 RMK AO2 SLP249 T10391078
Loading
Personal Weather Stations






























Interactive Weather Map New forecast layout! Learn more

10-Day Weather Forecast

Advertisements
Track Severe Weather on mobile